createdAt,value
2022-08-28T00:00:12.773Z,17.50
2022-08-28T00:02:40.966Z,17.50
2022-08-28T00:05:33.073Z,17.50
2022-08-28T00:08:00.947Z,17.40
2022-08-28T00:10:28.918Z,17.40
2022-08-28T00:12:57.417Z,17.40
2022-08-28T00:15:31.805Z,17.40
2022-08-28T00:18:00.329Z,17.40
2022-08-28T00:20:28.262Z,17.30
2022-08-28T00:22:55.886Z,17.30
2022-08-28T00:25:25.952Z,17.30
2022-08-28T00:27:59.517Z,17.30
2022-08-28T00:30:33.515Z,17.30
2022-08-28T00:33:05.023Z,17.20
2022-08-28T00:35:32.687Z,17.20
2022-08-28T00:38:00.377Z,17.20
2022-08-28T00:40:33.790Z,17.20
2022-08-28T00:43:05.685Z,17.10
2022-08-28T00:45:39.309Z,17.10
2022-08-28T00:48:07.937Z,17.10
2022-08-28T00:51:05.167Z,17.10
2022-08-28T00:53:33.033Z,17.00
2022-08-28T00:56:07.009Z,17.00
2022-08-28T00:58:43.255Z,17.00
2022-08-28T01:01:11.230Z,17.00
2022-08-28T01:03:38.782Z,16.90
2022-08-28T01:06:08.067Z,16.90
2022-08-28T01:08:38.857Z,16.80
2022-08-28T01:11:07.388Z,16.80
2022-08-28T01:13:38.071Z,16.80
2022-08-28T01:16:07.542Z,16.70
2022-08-28T01:18:35.645Z,16.70
2022-08-28T01:21:10.162Z,16.70
2022-08-28T01:24:09.969Z,16.70
2022-08-28T01:26:38.557Z,16.60
2022-08-28T01:29:07.198Z,16.60
2022-08-28T01:31:35.953Z,16.60
2022-08-28T01:34:04.388Z,16.50
2022-08-28T01:36:31.911Z,16.50
2022-08-28T01:39:07.195Z,16.40
2022-08-28T01:41:35.454Z,16.40
2022-08-28T01:44:02.857Z,16.40
2022-08-28T01:46:31.654Z,16.40
2022-08-28T01:49:00.310Z,16.30
2022-08-28T01:51:28.163Z,16.30
2022-08-28T01:54:02.498Z,16.30
2022-08-28T01:56:29.907Z,16.20
2022-08-28T01:58:57.234Z,16.20
2022-08-28T02:01:24.631Z,16.20
2022-08-28T02:03:53.067Z,16.10
2022-08-28T02:06:20.627Z,16.10
2022-08-28T02:08:49.783Z,16.00
2022-08-28T02:11:17.372Z,16.00
2022-08-28T02:13:44.764Z,16.00
2022-08-28T02:16:12.839Z,15.90
2022-08-28T02:18:40.330Z,15.90
2022-08-28T02:21:08.845Z,15.80
2022-08-28T02:23:39.652Z,15.70
2022-08-28T02:26:07.866Z,15.60
2022-08-28T02:28:36.767Z,15.50
2022-08-28T02:31:05.917Z,15.50
2022-08-28T02:33:33.663Z,15.40
2022-08-28T02:36:01.030Z,15.30
2022-08-28T02:38:30.543Z,15.20
2022-08-28T02:40:59.609Z,15.20
2022-08-28T02:43:32.268Z,15.20
2022-08-28T02:45:59.767Z,15.20
2022-08-28T02:48:32.606Z,15.20
2022-08-28T02:51:02.910Z,15.10
2022-08-28T02:53:31.259Z,15.10
2022-08-28T02:56:00.511Z,15.10
2022-08-28T02:58:27.958Z,15.00
2022-08-28T03:00:56.886Z,15.00
2022-08-28T03:03:28.826Z,15.00
2022-08-28T03:05:56.137Z,14.90
2022-08-28T03:08:27.157Z,14.90
2022-08-28T03:10:55.012Z,14.90
2022-08-28T03:13:26.556Z,14.90
2022-08-28T03:15:56.214Z,14.90
2022-08-28T03:18:25.727Z,14.90
2022-08-28T03:20:55.490Z,14.90
2022-08-28T03:23:26.304Z,14.90
2022-08-28T03:25:56.575Z,14.90
2022-08-28T03:28:25.798Z,14.80
2022-08-28T03:30:54.121Z,14.90
2022-08-28T03:33:21.807Z,14.90
2022-08-28T03:35:49.274Z,14.80
2022-08-28T03:38:17.718Z,14.90
2022-08-28T03:40:46.823Z,14.90
2022-08-28T03:43:17.949Z,14.80
2022-08-28T03:46:03.357Z,14.80
2022-08-28T03:48:36.324Z,14.80
2022-08-28T03:51:13.520Z,14.80
2022-08-28T03:53:42.784Z,14.70
2022-08-28T03:56:13.707Z,14.70
2022-08-28T03:58:42.027Z,14.70
2022-08-28T04:01:10.097Z,14.60
2022-08-28T04:03:37.578Z,14.70
2022-08-28T04:06:05.150Z,14.70
2022-08-28T04:08:32.620Z,14.70
2022-08-28T04:11:00.929Z,14.70
2022-08-28T04:13:29.478Z,14.70
2022-08-28T04:16:05.051Z,14.70
2022-08-28T04:18:35.493Z,14.70
2022-08-28T04:21:07.858Z,14.60
2022-08-28T04:23:38.159Z,14.60
2022-08-28T04:26:08.003Z,14.60
2022-08-28T04:28:35.813Z,14.60
2022-08-28T04:31:03.982Z,14.60
2022-08-28T04:33:31.626Z,14.50
2022-08-28T04:36:03.370Z,14.50
2022-08-28T04:38:31.202Z,14.50
2022-08-28T04:40:58.899Z,14.40
2022-08-28T04:43:26.374Z,14.40
2022-08-28T04:45:53.739Z,14.30
2022-08-28T04:48:21.215Z,14.30
2022-08-28T04:50:49.792Z,14.30
2022-08-28T04:53:19.989Z,14.30
2022-08-28T04:55:55.070Z,14.30
2022-08-28T04:58:23.808Z,14.20
2022-08-28T05:00:53.207Z,14.20
2022-08-28T05:03:21.386Z,14.20
2022-08-28T05:05:51.939Z,14.20
2022-08-28T05:08:21.757Z,14.20
2022-08-28T05:10:50.301Z,14.20
2022-08-28T05:13:19.187Z,14.10
2022-08-28T05:15:49.869Z,14.10
2022-08-28T05:18:19.491Z,14.00
2022-08-28T05:20:48.606Z,14.00
2022-08-28T05:23:18.021Z,14.00
2022-08-28T05:25:47.893Z,13.90
2022-08-28T05:28:17.107Z,13.90
2022-08-28T05:30:45.095Z,13.90
2022-08-28T05:33:14.598Z,13.80
2022-08-28T05:35:45.363Z,13.80
2022-08-28T05:38:15.205Z,13.80
2022-08-28T05:40:46.210Z,13.80
2022-08-28T05:43:16.164Z,13.70
2022-08-28T05:45:43.875Z,13.70
2022-08-28T05:48:11.964Z,13.70
2022-08-28T05:50:43.787Z,13.70
2022-08-28T05:53:16.985Z,13.70
2022-08-28T05:55:44.749Z,13.80
2022-08-28T05:58:32.284Z,13.80
2022-08-28T06:01:12.234Z,14.20
2022-08-28T06:03:42.680Z,14.80
2022-08-28T06:06:11.600Z,15.30
2022-08-28T06:08:58.288Z,15.40
2022-08-28T06:11:30.554Z,15.50
2022-08-28T06:14:01.830Z,15.60
2022-08-28T06:16:32.236Z,15.60
2022-08-28T06:19:00.614Z,15.70
2022-08-28T06:21:29.025Z,15.70
2022-08-28T06:23:57.041Z,15.80
2022-08-28T06:26:24.482Z,15.90
2022-08-28T06:28:53.050Z,16.00
2022-08-28T06:31:25.016Z,16.20
2022-08-28T06:33:54.565Z,16.20
2022-08-28T06:36:22.631Z,16.10
2022-08-28T06:38:50.259Z,16.10
2022-08-28T06:41:19.217Z,16.30
2022-08-28T06:43:46.605Z,16.60
2022-08-28T06:46:14.230Z,16.70
2022-08-28T06:48:41.700Z,16.90
2022-08-28T06:51:11.439Z,17.00
2022-08-28T06:53:40.525Z,17.10
2022-08-28T06:56:26.765Z,17.10
2022-08-28T06:58:59.321Z,17.20
2022-08-28T07:01:35.607Z,17.30
2022-08-28T07:04:14.410Z,17.60
2022-08-28T07:06:46.886Z,18.50
2022-08-28T07:09:14.770Z,18.30
2022-08-28T07:11:46.636Z,18.10
2022-08-28T07:14:14.080Z,18.10
2022-08-28T07:16:41.888Z,18.40
2022-08-28T07:19:11.968Z,18.90
2022-08-28T07:21:41.864Z,19.10
2022-08-28T07:24:11.242Z,19.00
2022-08-28T07:26:40.992Z,18.80
2022-08-28T07:29:10.422Z,18.60
2022-08-28T07:31:41.632Z,19.10
2022-08-28T07:34:11.750Z,19.80
2022-08-28T07:36:39.755Z,20.60
2022-08-28T07:39:08.892Z,21.40
2022-08-28T07:41:39.134Z,23.80
2022-08-28T07:44:27.086Z,25.30
2022-08-28T07:46:56.839Z,26.40
2022-08-28T07:49:25.490Z,24.80
2022-08-28T07:51:54.373Z,23.40
2022-08-28T07:54:23.346Z,22.10
2022-08-28T07:56:51.930Z,24.50
2022-08-28T07:59:20.426Z,25.00
2022-08-28T08:01:51.507Z,24.60
2022-08-28T08:04:20.419Z,24.20
2022-08-28T08:06:48.217Z,24.60
2022-08-28T08:09:18.037Z,26.20
2022-08-28T08:11:46.774Z,24.90
2022-08-28T08:14:15.388Z,25.20
2022-08-28T08:16:44.463Z,25.40
2022-08-28T08:19:14.019Z,26.00
2022-08-28T08:21:43.892Z,27.50
2022-08-28T08:24:19.903Z,27.60
2022-08-28T08:26:58.796Z,29.80
2022-08-28T08:29:31.274Z,30.60
2022-08-28T08:32:05.383Z,30.40
2022-08-28T08:34:36.559Z,30.40
2022-08-28T08:37:05.632Z,30.60
2022-08-28T08:39:34.178Z,30.00
2022-08-28T08:42:03.994Z,30.20
2022-08-28T08:44:41.609Z,29.50
2022-08-28T08:47:22.357Z,30.20
2022-08-28T08:49:52.325Z,30.30
2022-08-28T08:53:16.935Z,30.70
2022-08-28T08:55:52.733Z,31.80
2022-08-28T08:58:28.026Z,32.50
2022-08-28T09:01:11.597Z,33.60
2022-08-28T09:03:59.483Z,32.70
2022-08-28T09:06:44.924Z,32.30
2022-08-28T09:09:29.285Z,32.70
2022-08-28T09:11:57.403Z,33.10
2022-08-28T09:14:36.438Z,32.80
2022-08-28T09:17:06.699Z,33.50
2022-08-28T09:19:34.158Z,32.70
2022-08-28T09:22:01.894Z,32.20
2022-08-28T09:24:33.516Z,31.60
2022-08-28T09:27:11.063Z,31.90
2022-08-28T09:29:43.293Z,31.70
2022-08-28T09:32:27.699Z,31.20
2022-08-28T09:35:06.342Z,28.20
2022-08-28T09:37:35.881Z,27.90
2022-08-28T09:40:51.868Z,29.70
2022-08-28T09:43:28.025Z,30.80
2022-08-28T09:46:20.869Z,31.30
2022-08-28T09:48:52.447Z,28.60
2022-08-28T09:51:22.893Z,29.30
2022-08-28T09:53:56.403Z,30.10
2022-08-28T09:56:33.513Z,30.80
2022-08-28T09:59:06.641Z,32.50
2022-08-28T10:01:47.955Z,32.00
2022-08-28T10:04:35.507Z,32.70
2022-08-28T10:07:17.272Z,32.40
2022-08-28T10:09:56.415Z,34.00
2022-08-28T10:12:33.688Z,33.10
2022-08-28T10:15:26.200Z,34.40
2022-08-28T10:18:11.734Z,35.00
2022-08-28T10:21:10.492Z,34.20
2022-08-28T10:24:05.337Z,34.10
2022-08-28T10:26:45.313Z,33.90
2022-08-28T10:29:18.614Z,33.50
2022-08-28T10:32:00.951Z,32.10
2022-08-28T10:34:28.293Z,31.40
2022-08-28T10:37:07.169Z,31.70
2022-08-28T10:39:47.241Z,32.40
2022-08-28T10:42:22.707Z,31.30
2022-08-28T10:45:10.446Z,29.20
2022-08-28T10:47:42.208Z,26.70
2022-08-28T10:50:17.270Z,25.00
2022-08-28T10:53:10.317Z,24.30
2022-08-28T10:56:13.150Z,23.70
2022-08-28T10:58:41.198Z,23.60
2022-08-28T11:01:13.260Z,23.60
2022-08-28T11:03:48.645Z,23.50
2022-08-28T11:06:28.710Z,23.40
2022-08-28T11:09:22.624Z,23.40
2022-08-28T11:11:53.029Z,23.40
2022-08-28T11:14:28.534Z,23.40
2022-08-28T11:17:09.362Z,23.20
2022-08-28T11:20:09.130Z,23.30
2022-08-28T11:22:53.074Z,23.30
2022-08-28T11:25:50.365Z,23.40
2022-08-28T11:28:40.412Z,23.70
2022-08-28T11:31:07.860Z,23.60
2022-08-28T11:33:35.258Z,23.60
2022-08-28T11:36:03.075Z,23.60
2022-08-28T11:38:42.576Z,23.60
2022-08-28T11:41:14.752Z,23.40
2022-08-28T11:43:44.675Z,23.80
2022-08-28T11:46:32.692Z,24.10
2022-08-28T11:49:05.266Z,24.40
2022-08-28T11:51:55.383Z,24.50
2022-08-28T11:54:51.137Z,24.30
2022-08-28T11:57:26.010Z,23.50
2022-08-28T12:00:05.447Z,23.40
2022-08-28T12:02:43.089Z,23.40
2022-08-28T12:05:16.485Z,23.70
2022-08-28T12:07:49.286Z,23.70
2022-08-28T12:10:22.468Z,23.70
2022-08-28T12:12:52.559Z,23.80
2022-08-28T12:15:29.636Z,23.90
2022-08-28T12:17:57.228Z,24.00
2022-08-28T12:20:57.735Z,23.80
2022-08-28T12:23:37.100Z,23.70
2022-08-28T12:26:13.097Z,23.50
2022-08-28T12:29:04.529Z,23.40
2022-08-28T12:32:11.710Z,23.30
2022-08-28T12:34:57.609Z,23.20
2022-08-28T12:37:28.118Z,23.10
2022-08-28T12:39:58.261Z,23.20
2022-08-28T12:42:32.031Z,23.20
2022-08-28T12:45:08.788Z,23.00
2022-08-28T12:47:37.907Z,22.90
2022-08-28T12:50:27.018Z,22.90
2022-08-28T12:52:57.502Z,23.00
2022-08-28T12:55:25.858Z,23.00
2022-08-28T12:57:54.039Z,22.90
2022-08-28T13:00:30.202Z,22.80
2022-08-28T13:02:57.615Z,22.80
2022-08-28T13:05:39.754Z,22.70
2022-08-28T13:08:12.575Z,22.70
2022-08-28T13:10:49.579Z,22.80
2022-08-28T13:13:22.529Z,23.10
2022-08-28T13:15:55.242Z,23.20
2022-08-28T13:18:43.872Z,23.10
2022-08-28T13:21:17.410Z,23.20
2022-08-28T13:24:00.123Z,23.20
2022-08-28T13:26:33.097Z,23.00
2022-08-28T13:29:19.934Z,23.00
2022-08-28T13:31:56.261Z,22.90
2022-08-28T13:34:27.401Z,22.90
2022-08-28T13:37:14.739Z,22.90
2022-08-28T13:39:47.985Z,22.90
2022-08-28T13:42:18.036Z,22.80
2022-08-28T13:44:53.777Z,22.70
2022-08-28T13:47:21.141Z,22.80
2022-08-28T13:49:49.080Z,22.70
2022-08-28T13:52:17.014Z,22.70
2022-08-28T13:54:45.422Z,22.60
2022-08-28T13:57:13.708Z,22.60
2022-08-28T13:59:41.564Z,22.50
2022-08-28T14:02:31.409Z,22.50
2022-08-28T14:04:59.139Z,22.60
2022-08-28T14:07:26.563Z,22.60
2022-08-28T14:09:56.409Z,22.70
2022-08-28T14:12:30.702Z,22.70
2022-08-28T14:15:02.168Z,22.70
2022-08-28T14:17:29.654Z,22.60
2022-08-28T14:19:57.448Z,22.60
2022-08-28T14:22:24.798Z,22.50
2022-08-28T14:24:52.225Z,22.60
2022-08-28T14:27:19.915Z,22.60
2022-08-28T14:29:48.970Z,22.60
2022-08-28T14:32:16.354Z,22.50
2022-08-28T14:34:43.993Z,22.50
2022-08-28T14:37:11.458Z,22.40
2022-08-28T14:39:38.798Z,22.40
2022-08-28T14:42:13.333Z,22.50
2022-08-28T14:44:40.794Z,22.50
2022-08-28T14:47:08.677Z,22.50
2022-08-28T14:49:36.155Z,22.50
2022-08-28T14:52:04.613Z,22.40
2022-08-28T14:54:32.237Z,22.30
2022-08-28T14:56:59.658Z,22.30
2022-08-28T14:59:30.971Z,22.30
2022-08-28T15:02:00.286Z,22.20
2022-08-28T15:04:34.487Z,22.20
2022-08-28T15:07:05.436Z,22.20
2022-08-28T15:09:36.834Z,22.20
2022-08-28T15:12:05.039Z,22.10
2022-08-28T15:14:32.438Z,22.20
2022-08-28T15:16:59.922Z,22.40
2022-08-28T15:19:27.562Z,22.40
2022-08-28T15:21:56.058Z,22.40
2022-08-28T15:24:26.770Z,22.30
2022-08-28T15:26:54.601Z,22.30
2022-08-28T15:29:22.206Z,22.50
2022-08-28T15:31:50.876Z,22.50
2022-08-28T15:34:21.070Z,22.60
2022-08-28T15:36:55.289Z,22.60
2022-08-28T15:39:44.037Z,22.50
2022-08-28T15:42:12.017Z,22.50
2022-08-28T15:44:39.441Z,22.50
2022-08-28T15:47:07.441Z,22.30
2022-08-28T15:49:46.622Z,22.20
2022-08-28T15:52:18.563Z,22.20
2022-08-28T15:54:47.000Z,22.20
2022-08-28T15:57:15.042Z,22.10
2022-08-28T15:59:48.663Z,22.10
2022-08-28T16:02:20.106Z,22.00
2022-08-28T16:04:47.911Z,21.90
2022-08-28T16:07:15.639Z,22.00
2022-08-28T16:09:42.911Z,21.90
2022-08-28T16:12:10.348Z,21.80
2022-08-28T16:14:37.698Z,21.80
2022-08-28T16:17:05.694Z,21.70
2022-08-28T16:19:42.129Z,21.70
2022-08-28T16:22:11.150Z,21.60
2022-08-28T16:24:38.915Z,21.60
2022-08-28T16:27:08.659Z,21.60
2022-08-28T16:29:38.589Z,21.70
2022-08-28T16:32:06.960Z,21.70
2022-08-28T16:34:35.291Z,21.70
2022-08-28T16:37:04.456Z,21.70
2022-08-28T16:39:31.907Z,21.70
2022-08-28T16:41:59.424Z,21.70
2022-08-28T16:44:26.822Z,21.60
2022-08-28T16:46:55.394Z,21.60
2022-08-28T16:49:23.685Z,21.50
2022-08-28T16:51:51.169Z,21.50
2022-08-28T16:54:19.452Z,21.40
2022-08-28T16:56:47.051Z,21.40
2022-08-28T16:59:20.374Z,21.40
2022-08-28T17:01:52.942Z,21.30
2022-08-28T17:04:21.923Z,21.20
2022-08-28T17:06:49.573Z,21.20
2022-08-28T17:09:16.947Z,21.10
2022-08-28T17:11:52.386Z,21.00
2022-08-28T17:14:21.321Z,20.90
2022-08-28T17:16:49.466Z,20.90
2022-08-28T17:19:17.310Z,20.80
2022-08-28T17:22:03.100Z,20.80
2022-08-28T17:24:31.011Z,20.70
2022-08-28T17:27:00.929Z,20.50
2022-08-28T17:29:32.412Z,20.50
2022-08-28T17:31:59.739Z,20.40
2022-08-28T17:34:30.216Z,20.40
2022-08-28T17:36:57.946Z,20.40
2022-08-28T17:39:25.581Z,20.30
2022-08-28T17:41:53.088Z,20.20
2022-08-28T17:44:20.555Z,20.10
2022-08-28T17:46:48.012Z,20.00
2022-08-28T17:49:15.346Z,20.00
2022-08-28T17:51:44.459Z,20.00
2022-08-28T17:54:13.870Z,20.00
2022-08-28T17:56:41.590Z,19.90
2022-08-28T17:59:10.402Z,19.70
2022-08-28T18:01:38.598Z,19.60
2022-08-28T18:04:06.203Z,19.50
2022-08-28T18:06:33.695Z,19.50
2022-08-28T18:09:01.185Z,19.50
2022-08-28T18:11:29.011Z,19.30
2022-08-28T18:13:57.142Z,19.20
2022-08-28T18:16:28.878Z,19.20
2022-08-28T18:19:02.826Z,19.10
2022-08-28T18:21:31.059Z,19.10
2022-08-28T18:23:58.562Z,18.90
2022-08-28T18:26:26.285Z,18.90
2022-08-28T18:28:53.752Z,18.80
2022-08-28T18:31:21.187Z,18.80
2022-08-28T18:33:48.739Z,18.80
2022-08-28T18:36:16.777Z,18.60
2022-08-28T18:38:44.790Z,18.50
2022-08-28T18:41:12.358Z,18.40
2022-08-28T18:43:39.928Z,18.40
2022-08-28T18:46:09.640Z,18.30
2022-08-28T18:48:37.948Z,18.20
2022-08-28T18:51:07.696Z,18.30
2022-08-28T18:53:35.967Z,18.20
2022-08-28T18:56:04.509Z,18.10
2022-08-28T18:58:32.292Z,17.90
2022-08-28T19:01:02.187Z,17.80
2022-08-28T19:03:30.375Z,17.70
2022-08-28T19:05:57.908Z,17.60
2022-08-28T19:08:26.084Z,17.50
2022-08-28T19:10:54.069Z,17.40
2022-08-28T19:13:21.902Z,17.30
2022-08-28T19:15:52.564Z,17.30
2022-08-28T19:18:20.958Z,17.30
2022-08-28T19:20:48.677Z,17.30
2022-08-28T19:23:17.928Z,17.30
2022-08-28T19:25:46.688Z,17.30
2022-08-28T19:28:14.306Z,17.30
2022-08-28T19:30:42.107Z,17.20
2022-08-28T19:33:12.455Z,17.20
2022-08-28T19:35:39.762Z,17.10
2022-08-28T19:38:07.198Z,17.00
2022-08-28T19:40:34.719Z,17.10
2022-08-28T19:43:02.170Z,17.00
2022-08-28T19:45:33.073Z,16.90
2022-08-28T19:48:00.450Z,16.80
2022-08-28T19:50:27.911Z,16.80
2022-08-28T19:52:56.058Z,16.80
2022-08-28T19:55:25.813Z,16.70
2022-08-28T19:57:53.964Z,16.70
2022-08-28T20:00:26.423Z,16.60
2022-08-28T20:02:53.777Z,16.50
2022-08-28T20:05:22.178Z,16.50
2022-08-28T20:07:49.745Z,16.60
2022-08-28T20:10:18.404Z,16.40
2022-08-28T20:12:48.470Z,16.40
2022-08-28T20:15:18.845Z,16.40
2022-08-28T20:17:49.683Z,16.20
2022-08-28T20:20:24.550Z,16.20
2022-08-28T20:22:54.399Z,16.20
2022-08-28T20:25:22.075Z,16.10
2022-08-28T20:27:49.461Z,16.10
2022-08-28T20:30:17.851Z,16.10
2022-08-28T20:32:45.451Z,16.20
2022-08-28T20:35:13.453Z,16.20
2022-08-28T20:37:45.371Z,16.20
2022-08-28T20:40:17.090Z,16.10
2022-08-28T20:42:45.457Z,16.10
2022-08-28T20:45:15.083Z,16.10
2022-08-28T20:47:43.168Z,15.90
2022-08-28T20:50:11.499Z,15.90
2022-08-28T20:52:38.947Z,15.90
2022-08-28T20:55:07.943Z,15.90
2022-08-28T20:57:35.254Z,15.80
2022-08-28T21:00:05.813Z,15.70
2022-08-28T21:02:33.493Z,15.60
2022-08-28T21:05:01.026Z,15.60
2022-08-28T21:07:28.510Z,15.50
2022-08-28T21:10:06.696Z,15.40
2022-08-28T21:12:36.986Z,15.40
2022-08-28T21:15:06.459Z,15.40
2022-08-28T21:17:33.912Z,15.30
2022-08-28T21:20:04.906Z,15.20
2022-08-28T21:22:34.013Z,15.10
2022-08-28T21:25:05.647Z,15.20
2022-08-28T21:27:33.111Z,15.10
2022-08-28T21:30:01.465Z,15.10
2022-08-28T21:32:30.572Z,15.00
2022-08-28T21:34:58.356Z,15.00
2022-08-28T21:37:25.749Z,14.90
2022-08-28T21:39:53.910Z,14.90
2022-08-28T21:42:24.102Z,14.90
2022-08-28T21:44:52.266Z,14.80
2022-08-28T21:47:22.868Z,14.70
2022-08-28T21:49:51.546Z,14.60
2022-08-28T21:52:21.008Z,14.60
2022-08-28T21:54:48.948Z,14.60
2022-08-28T21:57:17.739Z,14.50
2022-08-28T21:59:45.046Z,14.50
2022-08-28T22:02:12.491Z,14.40
2022-08-28T22:04:39.889Z,14.40
2022-08-28T22:07:07.352Z,14.30
2022-08-28T22:09:34.680Z,14.30
2022-08-28T22:12:02.181Z,14.20
2022-08-28T22:14:29.550Z,14.10
2022-08-28T22:16:57.037Z,14.10
2022-08-28T22:19:24.470Z,14.10
2022-08-28T22:22:10.661Z,14.10
2022-08-28T22:24:37.989Z,14.20
2022-08-28T22:27:05.779Z,14.20
2022-08-28T22:29:36.505Z,14.20
2022-08-28T22:32:05.263Z,14.10
2022-08-28T22:34:39.844Z,14.10
2022-08-28T22:37:08.608Z,14.10
2022-08-28T22:39:35.900Z,14.00
2022-08-28T22:42:03.324Z,14.00
2022-08-28T22:44:31.138Z,14.00
2022-08-28T22:46:58.522Z,13.90
2022-08-28T22:49:26.288Z,13.90
2022-08-28T22:51:53.643Z,13.90
2022-08-28T22:54:20.974Z,13.90
2022-08-28T22:56:48.338Z,13.80
2022-08-28T22:59:15.934Z,13.80
2022-08-28T23:01:43.727Z,13.80
2022-08-28T23:04:11.442Z,13.80
2022-08-28T23:06:41.880Z,13.70
2022-08-28T23:09:09.238Z,13.80
2022-08-28T23:11:37.423Z,13.70
2022-08-28T23:14:05.804Z,13.70
2022-08-28T23:16:35.193Z,13.70
2022-08-28T23:19:13.316Z,13.70
2022-08-28T23:21:43.807Z,13.70
2022-08-28T23:24:16.081Z,13.70
2022-08-28T23:26:44.860Z,13.60
2022-08-28T23:29:12.923Z,13.60
2022-08-28T23:31:40.481Z,13.60
2022-08-28T23:34:07.944Z,13.60
2022-08-28T23:36:36.704Z,13.50
2022-08-28T23:39:04.829Z,13.50
2022-08-28T23:41:33.648Z,13.50
2022-08-28T23:44:03.192Z,13.50
2022-08-28T23:46:33.552Z,13.50
2022-08-28T23:49:00.885Z,13.50
2022-08-28T23:51:29.366Z,13.40
2022-08-28T23:53:57.165Z,13.30
2022-08-28T23:56:28.062Z,13.20
2022-08-28T23:58:55.921Z,13.20
